Airfield :
LOGIN :

Register | Disclaimer

   EN    FR    IT 

 










Legend :    VFR   Marginal VFR   IFR   Intensive IFR   Very Intensive IFR
Visi :
Ceiling :
>= 8 km
>= 3000ft
5 to 8 km
1000 to 3000 ft
1500m to 5 km
500 to 1000 ft
800 to 1500m
200 to 500 ft
< 800m
< 200 ft
Symbols :   Thunderstorms  Fog  Heavy snow  Heavy precipitations  Wind > 20 kt
SIGMETs :     Misc.  Thunderstorms  Icing  Turbulence  Mountain Waves  Volcanic Ashes






- Airport Elevation : 44 ft
- IATA code : SOU


EGHI - Southampton

CURRENT METAR :
  • 151220Z 22009KT 190V270 9999 VCSH FEW020 SCT038 10/04 Q0998

EXPIRED METARs :
  • 151150Z 22010KT 190V280 9999 FEW025 10/04 Q0998
  • 151120Z 23007KT 190V270 9999 FEW030CB 09/04 Q0998
  • 151050Z VRB03KT 9999 FEW030CB 09/04 Q0997
  • 151020Z 19004KT 9999 FEW025 08/04 Q0997
  • 150950Z VRB03KT 9999 VCSH FEW025 SCT038CB 08/04 Q0997

TAF TAF EGHI
Valid from the 15 at 12:00 until the 15 at 21:00 UTC


151054Z 1512/1521 22009KT 9999 FEW035
TEMPO 1512/1521 24015G25KT 6000 SHRA BKN014
ATIS : +44 23 8062 7103



MET'MAP, your aeronautical weather chart ! - Copyright ORBIFLY December 2007 - Disclaimer

ORBIFLY MET'MAP TEAM :

Programming & Development : Alexandra Zaïnal
Concept & original design : Baudouin d'Aumeries
Assistance for programming : Marc-Olivier Méhu
Technical & hardware support : Manuel Goepfert

Contact : metmap@orbifly.com




SOURCES & CREDITS :

   NOAA